Messwerte Bern-Belpmoos

Temperatur

Temperatur
°C
1568883600 11.00 11.00 13.0
1568887200 12.00 12.00 15.0
1568890800 13.00 13.00 16.0
1568894400 14.00 14.00 17.0
1568898000 15.00 15.00 17.0
1568901600 16.00 16.00 18.0
1568905200 17.00 17.00 18.0
1568908800 18.00 18.00 17.0
1568912400 19.00 19.00 16.0
1568916000 20.00 20.00 14.0
1568919600 21.00 21.00 13.0
1568923200 22.00 22.00 12.0
1568926800 23.00 23.00 10.0
1568930400 0.00 0.00 9.0
1568934000 1.00 1.00 7.0
1568937600 2.00 2.00 7.0
1568941200 3.00 3.00 7.0
1568944800 4.00 4.00 5.0
1568948400 5.00 5.00 3.0
1568952000 6.00 6.00 4.0
1568955600 7.00 7.00 4.0
1568959200 8.00 8.00 3.0
1568962800 9.00 9.00 8.0
1568966400 10.00 10.00 9.0

Aktuellste Messwerte

Wettercharakter
Wetter: recht sonnig
Temperatur
11 °C
Feuchtigkeit
70 %
Wind
5 km/hWindrichtung: West
Luftdruck
1025 hPa
Messzeit: 20. September 2019, 11.00Datenquelle: METAR

Weitere Messstationen in der Nähe

Messstation Temperatur Entfernung
Bern 10.6 °C 6 km
Bantiger 8.6 °C 8 km
Niederscherli 11.3 °C 9 km
Wünnewil 12.3 °C 17 km
Mühleberg-Stockeren 8.7 °C 17 km
Mühleberg 11.8 °C 18 km
Thierachern 11.2 °C 19 km

Niederschlag

Niederschlagsmenge
mm
1568883600 11.00 10.00 - 11.00 0.0
1568887200 12.00 11.00 - 12.00 0.0
1568890800 13.00 12.00 - 13.00 0.0
1568894400 14.00 13.00 - 14.00 0.0
1568898000 15.00 14.00 - 15.00 0.0
1568901600 16.00 15.00 - 16.00 0.0
1568905200 17.00 16.00 - 17.00 0.0
1568908800 18.00 17.00 - 18.00 0.0
1568912400 19.00 18.00 - 19.00 0.0
1568916000 20.00 19.00 - 20.00 0.0
1568919600 21.00 20.00 - 21.00 0.0
1568923200 22.00 21.00 - 22.00 0.0
1568926800 23.00 22.00 - 23.00 0.0
1568930400 0.00 23.00 - 0.00 0.0
1568934000 1.00 0.00 - 1.00 0.0
1568937600 2.00 1.00 - 2.00 0.0
1568941200 3.00 2.00 - 3.00 0.0
1568944800 4.00 3.00 - 4.00 0.0
1568948400 5.00 4.00 - 5.00 0.0
1568952000 6.00 5.00 - 6.00 0.0
1568955600 7.00 6.00 - 7.00 0.0
1568959200 8.00 7.00 - 8.00 0.0
1568962800 9.00 8.00 - 9.00 0.0
1568966400 10.00 9.00 - 10.00 0.0

Wind

Windrichtung Böen Mittelwind
° km/h km/h
1568883600 11.00 10.00 - 11.00 60° 9
1568887200 12.00 11.00 - 12.00 30° 10
1568890800 13.00 12.00 - 13.00 360° 14
1568894400 14.00 13.00 - 14.00 50° 18
1568898000 15.00 14.00 - 15.00 50° 19
1568901600 16.00 15.00 - 16.00 50° 19
1568905200 17.00 16.00 - 17.00 40° 17
1568908800 18.00 17.00 - 18.00 40° 32 16
1568912400 19.00 18.00 - 19.00 60° 32 10
1568916000 20.00 19.00 - 20.00 60° 7
1568919600 21.00 20.00 - 21.00 6
1568923200 22.00 21.00 - 22.00 5
1568926800 23.00 22.00 - 23.00 4
1568930400 0.00 23.00 - 0.00 5
1568934000 1.00 0.00 - 1.00 4
1568937600 2.00 1.00 - 2.00 5
1568941200 3.00 2.00 - 3.00 4
1568944800 4.00 3.00 - 4.00 4
1568948400 5.00 4.00 - 5.00 320° 4
1568952000 6.00 5.00 - 6.00 4
1568955600 7.00 6.00 - 7.00 190° 4
1568959200 8.00 7.00 - 8.00 190° 4
1568962800 9.00 8.00 - 9.00 1
1568966400 10.00 9.00 - 10.00 0

Ihre Wetterstation

Fehlt Ihre Wetterstation auf unserem Portal?

Schreiben Sie an network@meteonews.ch

Klima

Wann ist es am wärmsten? Wann regnet es am wenigsten? Unsere Klimadaten geben Auskunft.